sensor_id;sensor_type;location;lat;lon;timestamp;pressure;altitude;pressure_sealevel;temperature;humidity
76847;BME280;65813;49.546;8.644;2023-02-27T05:21:04;101425.88;;;-0.15;57.49
76847;BME280;65813;49.546;8.644;2023-02-27T05:25:33;101421.63;;;-0.23;58.34
76847;BME280;65813;49.546;8.644;2023-02-27T05:29:46;101432.03;;;-0.20;57.01
76847;BME280;65813;49.546;8.644;2023-02-27T05:34:11;101427.03;;;-0.37;58.13
76847;BME280;65813;49.546;8.644;2023-02-27T05:38:16;101433.97;;;-0.34;55.66
76847;BME280;65813;49.546;8.644;2023-02-27T05:42:27;101445.50;;;-0.49;57.82
76847;BME280;65813;49.546;8.644;2023-02-27T05:46:32;101438.31;;;-0.32;56.44
76847;BME280;65813;49.546;8.644;2023-02-27T05:50:36;101427.09;;;-0.41;57.10
76847;BME280;65813;49.546;8.644;2023-02-27T05:59:18;101442.69;;;-0.34;56.69
76847;BME280;65813;49.546;8.644;2023-02-27T06:03:24;101441.97;;;-0.48;56.84
76847;BME280;65813;49.546;8.644;2023-02-27T06:07:24;101441.16;;;-0.52;55.85
76847;BME280;65813;49.546;8.644;2023-02-27T06:11:25;101452.38;;;-0.40;55.90
76847;BME280;65813;49.546;8.644;2023-02-27T06:15:25;101447.25;;;-0.51;58.68
76847;BME280;65813;49.546;8.644;2023-02-27T06:19:26;101445.69;;;0.05;59.17
76847;BME280;65813;49.546;8.644;2023-02-27T06:23:26;101449.78;;;0.25;57.02
76847;BME280;65813;49.546;8.644;2023-02-27T06:27:27;101447.38;;;0.10;55.90
76847;BME280;65813;49.546;8.644;2023-02-27T06:31:27;101452.84;;;0.55;59.32
76847;BME280;65813;49.546;8.644;2023-02-27T06:35:28;101468.44;;;0.62;55.67
76847;BME280;65813;49.546;8.644;2023-02-27T06:39:28;101469.84;;;0.26;55.06
76847;BME280;65813;49.546;8.644;2023-02-27T06:43:29;101469.66;;;0.38;54.78
76847;BME280;65813;49.546;8.644;2023-02-27T06:47:33;101470.38;;;0.51;56.97
76847;BME280;65813;49.546;8.644;2023-02-27T06:51:34;101478.59;;;0.25;54.80
76847;BME280;65813;49.546;8.644;2023-02-27T06:55:34;101478.50;;;0.33;54.88
76847;BME280;65813;49.546;8.644;2023-02-27T06:59:34;101484.34;;;0.52;55.22
76847;BME280;65813;49.546;8.644;2023-02-27T07:03:34;101491.03;;;0.72;53.39
76847;BME280;65813;49.546;8.644;2023-02-27T07:07:35;101489.19;;;0.77;54.53
76847;BME280;65813;49.546;8.644;2023-02-27T07:11:35;101494.25;;;0.89;55.30
76847;BME280;65813;49.546;8.644;2023-02-27T07:15:36;101501.97;;;0.97;53.51
76847;BME280;65813;49.546;8.644;2023-02-27T07:19:36;101500.66;;;1.24;56.04
76847;BME280;65813;49.546;8.644;2023-02-27T07:23:36;101502.84;;;1.48;54.47
76847;BME280;65813;49.546;8.644;2023-02-27T07:27:37;101498.97;;;1.69;54.14
76847;BME280;65813;49.546;8.644;2023-02-27T07:31:37;101502.66;;;1.57;52.12
76847;BME280;65813;49.546;8.644;2023-02-27T07:35:38;101506.16;;;1.09;52.30
76847;BME280;65813;49.546;8.644;2023-02-27T07:39:38;101503.16;;;1.30;53.05
76847;BME280;65813;49.546;8.644;2023-02-27T07:43:38;101498.69;;;1.35;51.20
76847;BME280;65813;49.546;8.644;2023-02-27T07:47:39;101512.03;;;1.23;51.95
76847;BME280;65813;49.546;8.644;2023-02-27T07:51:39;101504.75;;;1.38;52.40
76847;BME280;65813;49.546;8.644;2023-02-27T07:55:40;101508.88;;;1.53;50.71
76847;BME280;65813;49.546;8.644;2023-02-27T07:59:40;101508.22;;;1.40;51.18
76847;BME280;65813;49.546;8.644;2023-02-27T08:03:40;101504.88;;;1.32;51.39
76847;BME280;65813;49.546;8.644;2023-02-27T08:07:41;101504.91;;;1.78;50.01
76847;BME280;65813;49.546;8.644;2023-02-27T08:11:41;101502.16;;;1.83;49.55
76847;BME280;65813;49.546;8.644;2023-02-27T08:15:42;101502.88;;;1.91;49.75
76847;BME280;65813;49.546;8.644;2023-02-27T08:19:42;101509.03;;;1.90;49.19
76847;BME280;65813;49.546;8.644;2023-02-27T08:23:42;101500.66;;;1.71;49.41
76847;BME280;65813;49.546;8.644;2023-02-27T08:27:43;101495.63;;;1.59;50.80
76847;BME280;65813;49.546;8.644;2023-02-27T08:31:43;101507.66;;;1.72;49.20
76847;BME280;65813;49.546;8.644;2023-02-27T08:35:44;101521.03;;;1.57;48.73
76847;BME280;65813;49.546;8.644;2023-02-27T08:39:44;101503.91;;;1.84;49.08
76847;BME280;65813;49.546;8.644;2023-02-27T08:43:44;101509.47;;;1.69;48.41
76847;BME280;65813;49.546;8.644;2023-02-27T08:47:45;101518.97;;;1.74;49.36
76847;BME280;65813;49.546;8.644;2023-02-27T08:51:45;101520.78;;;1.72;48.39
76847;BME280;65813;49.546;8.644;2023-02-27T08:55:49;101525.97;;;1.75;48.92
76847;BME280;65813;49.546;8.644;2023-02-27T08:59:50;101527.81;;;1.70;48.38
76847;BME280;65813;49.546;8.644;2023-02-27T09:03:50;101526.78;;;1.79;48.28
76847;BME280;65813;49.546;8.644;2023-02-27T09:07:51;101515.94;;;1.94;48.44
76847;BME280;65813;49.546;8.644;2023-02-27T09:11:51;101526.25;;;2.04;48.36
76847;BME280;65813;49.546;8.644;2023-02-27T09:15:52;101532.91;;;2.21;48.08
76847;BME280;65813;49.546;8.644;2023-02-27T09:19:53;101521.78;;;2.10;47.20
76847;BME280;65813;49.546;8.644;2023-02-27T09:23:53;101533.09;;;2.13;47.21
76847;BME280;65813;49.546;8.644;2023-02-27T09:27:54;101541.59;;;2.26;47.77
76847;BME280;65813;49.546;8.644;2023-02-27T09:31:55;101528.44;;;2.26;46.41
76847;BME280;65813;49.546;8.644;2023-02-27T09:35:55;101536.59;;;2.12;46.19
76847;BME280;65813;49.546;8.644;2023-02-27T09:39:55;101537.19;;;2.26;46.49
76847;BME280;65813;49.546;8.644;2023-02-27T09:43:56;101552.31;;;2.15;46.69
76847;BME280;65813;49.546;8.644;2023-02-27T09:48:04;101553.91;;;2.22;46.16
76847;BME280;65813;49.546;8.644;2023-02-27T09:52:11;101561.94;;;2.15;45.98
76847;BME280;65813;49.546;8.644;2023-02-27T09:56:15;101564.56;;;2.16;45.38
76847;BME280;65813;49.546;8.644;2023-02-27T10:00:56;101561.66;;;2.30;45.86
76847;BME280;65813;49.546;8.644;2023-02-27T10:17:43;101564.03;;;3.54;45.07
76847;BME280;65813;49.546;8.644;2023-02-27T10:21:49;101566.41;;;3.63;43.18
76847;BME280;65813;49.546;8.644;2023-02-27T10:25:51;101565.19;;;3.76;43.02
76847;BME280;65813;49.546;8.644;2023-02-27T10:29:58;101570.69;;;3.69;43.49
76847;BME280;65813;49.546;8.644;2023-02-27T10:34:01;101566.66;;;3.86;42.69
76847;BME280;65813;49.546;8.644;2023-02-27T10:38:14;101581.91;;;4.07;41.23
76847;BME280;65813;49.546;8.644;2023-02-27T10:42:17;101577.00;;;3.62;42.04
76847;BME280;65813;49.546;8.644;2023-02-27T10:46:26;101567.25;;;3.97;42.51
76847;BME280;65813;49.546;8.644;2023-02-27T10:50:36;101567.72;;;4.12;41.73
76847;BME280;65813;49.546;8.644;2023-02-27T10:54:37;101576.09;;;4.27;41.48
76847;BME280;65813;49.546;8.644;2023-02-27T10:58:38;101551.00;;;4.13;41.80
76847;BME280;65813;49.546;8.644;2023-02-27T11:02:41;101559.00;;;4.10;41.62
76847;BME280;65813;49.546;8.644;2023-02-27T11:06:42;101554.47;;;4.73;41.76
76847;BME280;65813;49.546;8.644;2023-02-27T11:10:54;101549.06;;;5.05;41.00
76847;BME280;65813;49.546;8.644;2023-02-27T11:15:22;101556.59;;;5.44;41.28
76847;BME280;65813;49.546;8.644;2023-02-27T11:19:34;101549.91;;;5.34;39.85
76847;BME280;65813;49.546;8.644;2023-02-27T11:23:35;101553.09;;;5.43;40.42
76847;BME280;65813;49.546;8.644;2023-02-27T11:27:35;101541.00;;;5.36;40.02
76847;BME280;65813;49.546;8.644;2023-02-27T11:31:37;101540.94;;;5.38;39.28
76847;BME280;65813;49.546;8.644;2023-02-27T11:35:38;101545.78;;;4.97;37.80
76847;BME280;65813;49.546;8.644;2023-02-27T11:39:47;101548.72;;;4.88;39.36
76847;BME280;65813;49.546;8.644;2023-02-27T11:43:51;101545.19;;;4.89;39.17
76847;BME280;65813;49.546;8.644;2023-02-27T11:47:56;101547.91;;;4.86;39.29
76847;BME280;65813;49.546;8.644;2023-02-27T11:52:16;101541.28;;;4.73;39.12
76847;BME280;65813;49.546;8.644;2023-02-27T11:56:26;101537.94;;;4.68;39.05
76847;BME280;65813;49.546;8.644;2023-02-27T12:00:39;101546.13;;;4.87;39.81
76847;BME280;65813;49.546;8.644;2023-02-27T12:09:02;101548.09;;;4.80;39.32
76847;BME280;65813;49.546;8.644;2023-02-27T12:13:15;101536.09;;;4.70;38.80
76847;BME280;65813;49.546;8.644;2023-02-27T12:17:34;101526.72;;;4.62;38.66
76847;BME280;65813;49.546;8.644;2023-02-27T12:26:20;101521.13;;;4.71;39.28
76847;BME280;65813;49.546;8.644;2023-02-27T12:30:37;101513.13;;;4.74;39.33
76847;BME280;65813;49.546;8.644;2023-02-27T12:34:42;101504.13;;;4.79;39.29
76847;BME280;65813;49.546;8.644;2023-02-27T12:38:43;101492.50;;;5.13;38.47
76847;BME280;65813;49.546;8.644;2023-02-27T12:51:37;101507.28;;;5.44;37.78
76847;BME280;65813;49.546;8.644;2023-02-27T12:55:52;101502.53;;;5.01;38.08
76847;BME280;65813;49.546;8.644;2023-02-27T13:00:14;101506.38;;;5.19;37.94
76847;BME280;65813;49.546;8.644;2023-02-27T13:12:58;101487.69;;;4.99;36.73
76847;BME280;65813;49.546;8.644;2023-02-27T13:17:11;101480.44;;;5.04;37.10
76847;BME280;65813;49.546;8.644;2023-02-27T13:21:29;101484.94;;;5.02;37.75
76847;BME280;65813;49.546;8.644;2023-02-27T13:25:34;101477.13;;;4.99;37.87
76847;BME280;65813;49.546;8.644;2023-02-27T13:29:44;101482.38;;;5.25;37.95
76847;BME280;65813;49.546;8.644;2023-02-27T13:33:58;101483.91;;;5.06;37.55
76847;BME280;65813;49.546;8.644;2023-02-27T13:38:27;101498.13;;;4.76;38.90
76847;BME280;65813;49.546;8.644;2023-02-27T13:54:38;101492.28;;;4.92;39.37
76847;BME280;65813;49.546;8.644;2023-02-27T13:58:39;101488.66;;;4.96;38.99
76847;BME280;65813;49.546;8.644;2023-02-27T14:02:43;101489.25;;;5.04;38.58
76847;BME280;65813;49.546;8.644;2023-02-27T14:06:45;101485.53;;;4.84;39.51
76847;BME280;65813;49.546;8.644;2023-02-27T14:23:25;101497.38;;;4.98;38.28
76847;BME280;65813;49.546;8.644;2023-02-27T14:27:29;101495.72;;;4.68;38.55
76847;BME280;65813;49.546;8.644;2023-02-27T14:31:33;101503.63;;;4.96;39.59
76847;BME280;65813;49.546;8.644;2023-02-27T14:35:35;101498.34;;;4.68;39.06
76847;BME280;65813;49.546;8.644;2023-02-27T14:39:36;101503.19;;;4.54;39.13
76847;BME280;65813;49.546;8.644;2023-02-27T14:43:44;101494.75;;;4.14;38.79
76847;BME280;65813;49.546;8.644;2023-02-27T14:47:45;101494.59;;;4.18;38.70
76847;BME280;65813;49.546;8.644;2023-02-27T14:51:45;101489.22;;;4.21;38.89
76847;BME280;65813;49.546;8.644;2023-02-27T14:55:54;101490.75;;;4.30;39.11
76847;BME280;65813;49.546;8.644;2023-02-27T14:59:55;101488.28;;;4.24;39.57
76847;BME280;65813;49.546;8.644;2023-02-27T15:03:56;101483.19;;;4.18;39.49
76847;BME280;65813;49.546;8.644;2023-02-27T15:07:57;101484.03;;;4.18;39.00
76847;BME280;65813;49.546;8.644;2023-02-27T15:11:58;101483.06;;;4.22;39.22
76847;BME280;65813;49.546;8.644;2023-02-27T15:20:30;101483.13;;;4.76;40.11
76847;BME280;65813;49.546;8.644;2023-02-27T15:24:33;101479.88;;;4.40;39.05
76847;BME280;65813;49.546;8.644;2023-02-27T15:28:37;101479.16;;;4.63;38.65
76847;BME280;65813;49.546;8.644;2023-02-27T15:32:41;101472.06;;;4.37;39.42
76847;BME280;65813;49.546;8.644;2023-02-27T15:36:52;101483.38;;;4.69;39.20
76847;BME280;65813;49.546;8.644;2023-02-27T15:40:55;101471.75;;;4.46;38.24
76847;BME280;65813;49.546;8.644;2023-02-27T15:44:56;101483.44;;;4.38;38.81
76847;BME280;65813;49.546;8.644;2023-02-27T15:48:57;101483.22;;;4.45;38.63
76847;BME280;65813;49.546;8.644;2023-02-27T15:53:04;101486.25;;;4.33;38.83
76847;BME280;65813;49.546;8.644;2023-02-27T15:57:09;101490.84;;;4.27;38.65
76847;BME280;65813;49.546;8.644;2023-02-27T16:01:16;101488.09;;;4.30;38.60
76847;BME280;65813;49.546;8.644;2023-02-27T16:05:21;101502.00;;;4.35;37.84
76847;BME280;65813;49.546;8.644;2023-02-27T16:09:31;101488.09;;;4.30;38.75
76847;BME280;65813;49.546;8.644;2023-02-27T16:13:36;101492.09;;;4.43;39.52
76847;BME280;65813;49.546;8.644;2023-02-27T16:17:37;101498.94;;;4.48;39.80
76847;BME280;65813;49.546;8.644;2023-02-27T16:21:38;101505.00;;;4.52;39.14
76847;BME280;65813;49.546;8.644;2023-02-27T16:25:39;101510.19;;;4.55;39.61
76847;BME280;65813;49.546;8.644;2023-02-27T16:29:42;101513.22;;;4.41;38.76
76847;BME280;65813;49.546;8.644;2023-02-27T16:33:43;101511.00;;;4.28;39.19
76847;BME280;65813;49.546;8.644;2023-02-27T16:37:44;101523.19;;;4.32;38.19
76847;BME280;65813;49.546;8.644;2023-02-27T16:41:45;101530.03;;;4.08;38.95
76847;BME280;65813;49.546;8.644;2023-02-27T16:45:49;101531.88;;;4.06;39.25
76847;BME280;65813;49.546;8.644;2023-02-27T16:49:50;101530.59;;;3.88;38.06
76847;BME280;65813;49.546;8.644;2023-02-27T16:53:52;101550.91;;;3.85;37.52
76847;BME280;65813;49.546;8.644;2023-02-27T16:57:53;101539.94;;;3.68;37.60
76847;BME280;65813;49.546;8.644;2023-02-27T17:01:57;101555.78;;;3.66;38.84
76847;BME280;65813;49.546;8.644;2023-02-27T17:05:58;101556.06;;;3.55;38.01
76847;BME280;65813;49.546;8.644;2023-02-27T17:09:58;101559.75;;;3.48;38.18
76847;BME280;65813;49.546;8.644;2023-02-27T17:13:59;101564.03;;;3.52;38.20
76847;BME280;65813;49.546;8.644;2023-02-27T17:17:59;101569.31;;;3.52;42.18
76847;BME280;65813;49.546;8.644;2023-02-27T17:22:00;101578.41;;;3.41;38.19
76847;BME280;65813;49.546;8.644;2023-02-27T17:26:00;101587.13;;;3.43;38.40
76847;BME280;65813;49.546;8.644;2023-02-27T17:30:00;101587.19;;;3.40;38.20
76847;BME280;65813;49.546;8.644;2023-02-27T17:34:02;101588.25;;;3.33;39.67
76847;BME280;65813;49.546;8.644;2023-02-27T17:38:03;101598.09;;;3.25;39.25
76847;BME280;65813;49.546;8.644;2023-02-27T17:42:03;101603.50;;;3.19;40.59
76847;BME280;65813;49.546;8.644;2023-02-27T17:46:08;101606.28;;;3.13;40.41
76847;BME280;65813;49.546;8.644;2023-02-27T17:50:09;101607.97;;;3.17;40.79
76847;BME280;65813;49.546;8.644;2023-02-27T17:54:10;101611.41;;;3.19;40.37
76847;BME280;65813;49.546;8.644;2023-02-27T17:58:10;101616.09;;;3.06;40.29
76847;BME280;65813;49.546;8.644;2023-02-27T18:02:12;101616.03;;;3.08;42.33
76847;BME280;65813;49.546;8.644;2023-02-27T18:06:12;101619.59;;;3.07;40.91
76847;BME280;65813;49.546;8.644;2023-02-27T18:10:13;101620.63;;;2.99;40.34
76847;BME280;65813;49.546;8.644;2023-02-27T18:14:14;101626.38;;;3.17;41.77
76847;BME280;65813;49.546;8.644;2023-02-27T18:18:15;101627.38;;;3.11;43.29
76847;BME280;65813;49.546;8.644;2023-02-27T18:22:15;101631.81;;;3.09;43.14
76847;BME280;65813;49.546;8.644;2023-02-27T18:26:20;101638.28;;;2.94;40.68
76847;BME280;65813;49.546;8.644;2023-02-27T18:30:21;101631.25;;;2.95;44.43
76847;BME280;65813;49.546;8.644;2023-02-27T18:34:22;101640.38;;;3.19;47.03
76847;BME280;65813;49.546;8.644;2023-02-27T18:38:23;101642.84;;;3.25;46.04
76847;BME280;65813;49.546;8.644;2023-02-27T18:42:23;101649.94;;;3.23;44.86
76847;BME280;65813;49.546;8.644;2023-02-27T18:46:24;101643.28;;;3.07;41.96
76847;BME280;65813;49.546;8.644;2023-02-27T18:50:24;101639.53;;;2.78;43.13
76847;BME280;65813;49.546;8.644;2023-02-27T18:54:24;101645.88;;;2.68;42.17
76847;BME280;65813;49.546;8.644;2023-02-27T18:58:25;101653.69;;;2.71;42.35
76847;BME280;65813;49.546;8.644;2023-02-27T19:02:25;101648.53;;;2.67;43.32
76847;BME280;65813;49.546;8.644;2023-02-27T19:06:26;101666.50;;;2.45;43.58
76847;BME280;65813;49.546;8.644;2023-02-27T19:10:26;101657.78;;;2.43;43.97
76847;BME280;65813;49.546;8.644;2023-02-27T19:14:27;101656.69;;;2.54;44.53
76847;BME280;65813;49.546;8.644;2023-02-27T19:18:27;101648.75;;;2.56;48.32
76847;BME280;65813;49.546;8.644;2023-02-27T19:22:28;101655.97;;;2.45;45.71
76847;BME280;65813;49.546;8.644;2023-02-27T19:26:31;101660.28;;;2.49;45.73
76847;BME280;65813;49.546;8.644;2023-02-27T19:30:33;101649.53;;;2.61;45.81
76847;BME280;65813;49.546;8.644;2023-02-27T19:34:33;101646.16;;;2.54;47.47
76847;BME280;65813;49.546;8.644;2023-02-27T19:38:34;101655.13;;;2.44;45.86
76847;BME280;65813;49.546;8.644;2023-02-27T19:42:35;101658.56;;;2.48;48.75
76847;BME280;65813;49.546;8.644;2023-02-27T19:46:36;101665.84;;;2.34;46.87
76847;BME280;65813;49.546;8.644;2023-02-27T19:50:38;101668.06;;;2.55;49.49
76847;BME280;65813;49.546;8.644;2023-02-27T19:54:39;101661.97;;;2.53;47.71
76847;BME280;65813;49.546;8.644;2023-02-27T19:58:40;101658.44;;;2.52;46.99
76847;BME280;65813;49.546;8.644;2023-02-27T20:02:41;101658.56;;;2.48;46.50
76847;BME280;65813;49.546;8.644;2023-02-27T20:06:43;101666.34;;;2.52;48.32
76847;BME280;65813;49.546;8.644;2023-02-27T20:10:57;101659.31;;;2.53;46.41
76847;BME280;65813;49.546;8.644;2023-02-27T20:14:58;101665.59;;;2.47;47.63
76847;BME280;65813;49.546;8.644;2023-02-27T20:18:58;101663.91;;;2.42;48.02
76847;BME280;65813;49.546;8.644;2023-02-27T20:22:59;101661.34;;;2.40;47.30
76847;BME280;65813;49.546;8.644;2023-02-27T20:26:59;101656.03;;;2.42;48.55
76847;BME280;65813;49.546;8.644;2023-02-27T20:31:00;101668.69;;;2.22;47.89
76847;BME280;65813;49.546;8.644;2023-02-27T20:35:00;101663.50;;;2.19;47.96
76847;BME280;65813;49.546;8.644;2023-02-27T20:39:00;101665.25;;;2.18;48.15
76847;BME280;65813;49.546;8.644;2023-02-27T20:43:01;101666.19;;;2.16;48.45
76847;BME280;65813;49.546;8.644;2023-02-27T20:47:03;101667.31;;;2.02;49.21
76847;BME280;65813;49.546;8.644;2023-02-27T20:51:19;101663.06;;;1.95;49.41
76847;BME280;65813;49.546;8.644;2023-02-27T20:55:20;101659.38;;;2.06;49.21
76847;BME280;65813;49.546;8.644;2023-02-27T20:59:22;101660.38;;;1.98;49.89
76847;BME280;65813;49.546;8.644;2023-02-27T21:03:24;101666.72;;;1.85;49.57
76847;BME280;65813;49.546;8.644;2023-02-27T21:07:24;101669.19;;;1.94;49.52
76847;BME280;65813;49.546;8.644;2023-02-27T21:11:27;101664.94;;;1.87;49.70
76847;BME280;65813;49.546;8.644;2023-02-27T21:15:27;101679.06;;;1.82;50.81
76847;BME280;65813;49.546;8.644;2023-02-27T21:19:28;101667.72;;;1.78;52.31
76847;BME280;65813;49.546;8.644;2023-02-27T21:23:28;101668.56;;;1.80;50.53
76847;BME280;65813;49.546;8.644;2023-02-27T21:27:29;101665.28;;;1.68;50.79
76847;BME280;65813;49.546;8.644;2023-02-27T21:31:30;101661.44;;;1.87;50.36
76847;BME280;65813;49.546;8.644;2023-02-27T21:35:31;101664.91;;;1.89;50.74
76847;BME280;65813;49.546;8.644;2023-02-27T21:39:32;101664.06;;;1.88;50.68
76847;BME280;65813;49.546;8.644;2023-02-27T21:43:32;101660.63;;;1.83;51.99
76847;BME280;65813;49.546;8.644;2023-02-27T21:47:33;101652.63;;;1.91;52.68
76847;BME280;65813;49.546;8.644;2023-02-27T21:51:33;101654.38;;;1.90;50.76
76847;BME280;65813;49.546;8.644;2023-02-27T21:55:34;101657.66;;;2.03;52.09
76847;BME280;65813;49.546;8.644;2023-02-27T21:59:34;101644.00;;;1.83;51.43
76847;BME280;65813;49.546;8.644;2023-02-27T22:03:34;101639.28;;;2.01;51.47
76847;BME280;65813;49.546;8.644;2023-02-27T22:07:34;101640.41;;;1.88;52.04
76847;BME280;65813;49.546;8.644;2023-02-27T22:11:36;101641.03;;;2.01;50.84
